createdAt,value
2018-11-12T00:01:24.218Z,8.13
2018-11-12T00:03:52.272Z,10.53
2018-11-12T00:06:20.325Z,5.10
2018-11-12T00:08:48.355Z,4.10
2018-11-12T00:11:16.411Z,7.07
2018-11-12T00:13:44.606Z,13.80
2018-11-12T00:16:12.659Z,3.87
2018-11-12T00:18:40.903Z,7.60
2018-11-12T00:21:08.952Z,4.07
2018-11-12T00:23:36.981Z,3.50
2018-11-12T00:26:05.714Z,5.17
2018-11-12T00:28:33.753Z,3.80
2018-11-12T00:31:01.857Z,6.50
2018-11-12T00:33:29.901Z,6.30
2018-11-12T00:35:58.981Z,5.77
2018-11-12T00:38:27.012Z,4.73
2018-11-12T00:40:55.057Z,9.10
2018-11-12T00:43:23.102Z,3.33
2018-11-12T00:45:51.142Z,4.77
2018-11-12T00:48:19.184Z,5.77
2018-11-12T00:50:47.232Z,4.63
2018-11-12T00:53:15.266Z,7.83
2018-11-12T00:55:43.301Z,6.67
2018-11-12T00:58:11.577Z,6.23
2018-11-12T01:00:39.626Z,4.73
2018-11-12T01:03:07.670Z,3.40
2018-11-12T01:05:35.726Z,4.30
2018-11-12T01:08:04.370Z,10.07
2018-11-12T01:10:32.418Z,5.37
2018-11-12T01:13:00.457Z,7.20
2018-11-12T01:15:28.494Z,7.50
2018-11-12T01:17:56.556Z,4.60
2018-11-12T01:20:25.518Z,7.50
2018-11-12T01:22:53.561Z,4.97
2018-11-12T01:25:21.598Z,4.90
2018-11-12T01:27:49.760Z,4.20
2018-11-12T01:30:18.778Z,6.27
2018-11-12T01:32:47.077Z,5.00
2018-11-12T01:35:16.150Z,4.67
2018-11-12T01:37:44.330Z,1.60
2018-11-12T01:40:13.114Z,3.27
2018-11-12T01:42:41.514Z,5.03
2018-11-12T01:45:14.489Z,3.70
2018-11-12T01:47:43.545Z,5.50
2018-11-12T01:50:12.909Z,2.77
2018-11-12T01:52:41.670Z,1.63
2018-11-12T01:55:11.066Z,3.10
2018-11-12T01:57:39.157Z,5.17
2018-11-12T02:00:11.812Z,2.43
2018-11-12T02:02:39.865Z,2.63
2018-11-12T02:05:08.573Z,1.80
2018-11-12T02:07:36.593Z,4.00
2018-11-12T02:10:05.158Z,5.07
2018-11-12T02:12:33.213Z,3.50
2018-11-12T02:15:01.261Z,4.30
2018-11-12T02:17:29.301Z,1.90
2018-11-12T02:19:57.329Z,6.33
2018-11-12T02:22:25.429Z,1.50
2018-11-12T02:24:53.414Z,3.00
2018-11-12T02:27:21.476Z,3.77
2018-11-12T02:29:49.515Z,5.33
2018-11-12T02:32:17.574Z,3.50
2018-11-12T02:34:45.617Z,4.07
2018-11-12T02:37:13.678Z,5.47
2018-11-12T02:39:41.731Z,2.00
2018-11-12T02:42:09.796Z,5.07
2018-11-12T02:44:37.826Z,8.10
2018-11-12T02:47:05.902Z,2.90
2018-11-12T02:49:33.939Z,2.30
2018-11-12T02:52:01.989Z,4.90
2018-11-12T02:54:30.046Z,2.53
2018-11-12T02:56:58.089Z,4.20
2018-11-12T02:59:26.333Z,4.53
2018-11-12T03:01:54.406Z,6.60
2018-11-12T03:04:22.453Z,7.87
2018-11-12T03:06:50.491Z,6.83
2018-11-12T03:09:18.542Z,3.13
2018-11-12T03:11:46.590Z,2.37
2018-11-12T03:14:14.643Z,3.90
2018-11-12T03:16:42.694Z,3.13
2018-11-12T03:19:10.780Z,4.53
2018-11-12T03:21:38.835Z,2.70
2018-11-12T03:24:06.910Z,2.60
2018-11-12T03:26:34.925Z,4.03
2018-11-12T03:29:03.038Z,11.77
2018-11-12T03:31:31.277Z,2.77
2018-11-12T03:33:59.331Z,3.70
2018-11-12T03:36:27.370Z,2.87
2018-11-12T03:38:55.410Z,2.63
2018-11-12T03:41:23.501Z,3.23
2018-11-12T03:43:51.574Z,6.53
2018-11-12T03:46:19.613Z,6.23
2018-11-12T03:48:47.662Z,5.20
2018-11-12T03:51:15.688Z,2.30
2018-11-12T03:53:43.800Z,4.53
2018-11-12T03:56:11.838Z,8.63
2018-11-12T03:58:39.893Z,2.90
2018-11-12T04:01:07.922Z,3.13
2018-11-12T04:03:35.981Z,6.20
2018-11-12T04:06:04.048Z,3.83
2018-11-12T04:08:32.102Z,4.17
2018-11-12T04:11:00.141Z,5.77
2018-11-12T04:13:28.223Z,6.80
2018-11-12T04:15:56.255Z,5.40
2018-11-12T04:18:25.341Z,3.53
2018-11-12T04:20:53.398Z,5.77
2018-11-12T04:23:21.466Z,10.13
2018-11-12T04:25:49.769Z,4.57
2018-11-12T04:28:17.829Z,4.30
2018-11-12T04:30:45.914Z,3.40
2018-11-12T04:33:13.962Z,3.00
2018-11-12T04:35:42.007Z,3.60
2018-11-12T04:38:10.138Z,5.00
2018-11-12T04:40:38.166Z,6.03
2018-11-12T04:43:06.270Z,7.63
2018-11-12T04:45:34.380Z,8.60
2018-11-12T04:48:02.410Z,9.37
2018-11-12T04:50:30.469Z,7.17
2018-11-12T04:52:58.499Z,12.83
2018-11-12T04:55:26.772Z,6.87
2018-11-12T04:57:54.594Z,7.73
2018-11-12T05:00:25.225Z,7.53
2018-11-12T05:02:53.428Z,8.80
2018-11-12T05:05:23.366Z,8.70
2018-11-12T05:07:51.549Z,15.70
2018-11-12T05:10:20.722Z,9.13
2018-11-12T05:12:49.426Z,10.00
2018-11-12T05:15:19.549Z,9.47
2018-11-12T05:17:47.629Z,7.03
2018-11-12T05:20:20.713Z,9.33
2018-11-12T05:22:49.054Z,8.93
2018-11-12T05:25:17.306Z,15.23
2018-11-12T05:27:45.363Z,9.00
2018-11-12T05:30:15.663Z,9.60
2018-11-12T05:32:43.777Z,8.60
2018-11-12T05:35:12.717Z,16.77
2018-11-12T05:37:40.800Z,11.60
2018-11-12T05:40:11.049Z,10.33
2018-11-12T05:42:39.386Z,6.60
2018-11-12T05:45:07.678Z,5.23
2018-11-12T05:47:36.343Z,15.40
2018-11-12T05:50:06.002Z,9.30
2018-11-12T05:52:34.053Z,8.80
2018-11-12T05:55:02.107Z,8.67
2018-11-12T05:57:30.133Z,5.47
2018-11-12T05:59:58.181Z,8.97
2018-11-12T06:02:27.337Z,5.07
2018-11-12T06:04:55.453Z,7.47
2018-11-12T06:07:23.544Z,7.53
2018-11-12T06:09:51.590Z,8.73
2018-11-12T06:12:19.638Z,16.03
2018-11-12T06:14:47.677Z,9.40
2018-11-12T06:17:15.710Z,9.90
2018-11-12T06:19:43.757Z,13.50
2018-11-12T06:22:11.821Z,9.50
2018-11-12T06:24:39.897Z,9.80
2018-11-12T06:27:07.958Z,6.93
2018-11-12T06:29:35.998Z,6.90
2018-11-12T06:32:04.871Z,6.50
2018-11-12T06:34:32.909Z,10.10
2018-11-12T06:37:00.946Z,11.03
2018-11-12T06:39:28.981Z,8.00
2018-11-12T06:41:57.043Z,6.87
2018-11-12T06:44:25.739Z,8.17
2018-11-12T06:46:53.775Z,14.57
2018-11-12T06:49:21.977Z,6.77
2018-11-12T06:51:50.219Z,10.80
2018-11-12T06:54:18.306Z,7.80
2018-11-12T06:56:46.381Z,7.20
2018-11-12T06:59:14.406Z,4.27
2018-11-12T07:01:42.463Z,11.80
2018-11-12T07:04:10.510Z,14.70
2018-11-12T07:06:38.601Z,9.70
2018-11-12T07:09:10.258Z,14.40
2018-11-12T07:11:38.306Z,9.53
2018-11-12T07:14:06.689Z,8.13
2018-11-12T07:16:36.573Z,5.60
2018-11-12T07:19:05.253Z,15.90
2018-11-12T07:21:33.206Z,5.17
2018-11-12T07:24:01.250Z,5.83
2018-11-12T07:26:29.311Z,9.67
2018-11-12T07:28:57.363Z,4.67
2018-11-12T07:31:25.510Z,6.67
2018-11-12T07:33:53.478Z,5.00
2018-11-12T07:36:21.522Z,6.20
2018-11-12T07:38:49.557Z,6.47
2018-11-12T07:41:17.619Z,15.23
2018-11-12T07:43:45.658Z,7.93
2018-11-12T07:46:13.706Z,8.30
2018-11-12T07:48:42.352Z,10.53
2018-11-12T07:51:10.389Z,12.10
2018-11-12T07:53:38.427Z,7.50
2018-11-12T07:56:06.533Z,12.30
2018-11-12T07:58:34.518Z,5.40
2018-11-12T08:01:02.557Z,6.23
2018-11-12T08:03:30.683Z,7.60
2018-11-12T08:05:58.671Z,4.20
2018-11-12T08:08:26.718Z,4.90
2018-11-12T08:10:54.775Z,4.00
2018-11-12T08:13:23.426Z,9.50
2018-11-12T08:15:51.470Z,5.30
2018-11-12T08:18:19.511Z,5.77
2018-11-12T08:20:47.554Z,6.30
2018-11-12T08:23:15.681Z,3.53
2018-11-12T08:25:43.741Z,7.60
2018-11-12T08:28:11.775Z,3.03
2018-11-12T08:30:39.817Z,4.00
2018-11-12T08:33:07.966Z,3.83
2018-11-12T08:35:35.926Z,5.20
2018-11-12T08:38:04.237Z,9.43
2018-11-12T08:40:32.398Z,6.37
2018-11-12T08:43:00.329Z,12.03
2018-11-12T08:45:28.613Z,9.63
2018-11-12T08:47:57.201Z,4.80
2018-11-12T08:50:26.280Z,7.17
2018-11-12T08:52:55.087Z,4.83
2018-11-12T08:55:25.253Z,12.10
2018-11-12T08:57:54.682Z,7.77
2018-11-12T09:00:23.481Z,6.50
2018-11-12T09:02:51.573Z,7.87
2018-11-12T09:05:20.601Z,9.30
2018-11-12T09:07:50.161Z,11.73
2018-11-12T09:10:20.282Z,8.43
2018-11-12T09:12:48.249Z,4.40
2018-11-12T09:15:16.513Z,9.20
2018-11-12T09:17:45.517Z,5.83
2018-11-12T09:20:15.214Z,3.20
2018-11-12T09:22:43.264Z,8.33
2018-11-12T09:25:14.261Z,11.93
2018-11-12T09:27:42.411Z,8.93
2018-11-12T09:30:13.540Z,7.80
2018-11-12T09:32:42.329Z,10.07
2018-11-12T09:35:12.562Z,10.10
2018-11-12T09:37:40.614Z,20.17
2018-11-12T09:40:11.462Z,10.80
2018-11-12T09:42:39.519Z,14.10
2018-11-12T09:45:08.800Z,26.83
2018-11-12T09:47:37.051Z,18.70
2018-11-12T09:50:06.994Z,15.90
2018-11-12T09:52:35.049Z,6.97
2018-11-12T09:55:03.099Z,7.17
2018-11-12T09:57:31.142Z,4.70
2018-11-12T09:59:59.246Z,3.40
2018-11-12T10:02:28.493Z,12.40
2018-11-12T10:04:56.770Z,9.23
2018-11-12T10:07:26.576Z,8.10
2018-11-12T10:09:55.513Z,6.27
2018-11-12T10:12:23.021Z,6.30
2018-11-12T10:14:52.170Z,7.10
2018-11-12T10:17:20.334Z,5.10
2018-11-12T10:19:45.374Z,5.17
2018-11-12T10:22:13.354Z,6.83
2018-11-12T10:24:41.562Z,6.03
2018-11-12T10:27:09.877Z,9.20
2018-11-12T10:29:37.990Z,4.47
2018-11-12T10:32:06.021Z,5.80
2018-11-12T10:34:34.079Z,9.17
2018-11-12T10:37:02.143Z,7.60
2018-11-12T10:39:30.185Z,10.83
2018-11-12T10:41:58.250Z,9.20
2018-11-12T10:44:26.299Z,8.33
2018-11-12T10:46:54.338Z,7.83
2018-11-12T10:49:22.398Z,11.00
2018-11-12T10:51:51.359Z,11.03
2018-11-12T10:54:19.513Z,26.90
2018-11-12T10:56:47.449Z,6.23
2018-11-12T10:59:15.509Z,32.87
2018-11-12T11:01:49.131Z,11.63
2018-11-12T11:04:21.233Z,21.07
2018-11-12T11:06:49.574Z,12.50
2018-11-12T11:09:17.609Z,5.40
2018-11-12T11:11:45.690Z,6.90
2018-11-12T11:14:13.732Z,6.67
2018-11-12T11:16:41.765Z,8.00
2018-11-12T11:19:09.820Z,12.60
2018-11-12T11:21:38.128Z,7.33
2018-11-12T11:24:06.211Z,10.30
2018-11-12T11:26:34.292Z,8.20
2018-11-12T11:29:02.657Z,5.37
2018-11-12T11:31:30.713Z,8.60
2018-11-12T11:33:58.762Z,8.20
2018-11-12T11:36:26.818Z,6.63
2018-11-12T11:38:54.877Z,4.60
2018-11-12T11:41:22.945Z,9.20
2018-11-12T11:43:51.074Z,5.90
2018-11-12T11:46:19.560Z,12.17
2018-11-12T11:48:47.663Z,6.43
2018-11-12T11:51:16.371Z,6.67
2018-11-12T11:53:44.458Z,6.60
2018-11-12T11:56:12.545Z,5.33
2018-11-12T11:58:40.592Z,11.17
2018-11-12T12:01:08.650Z,6.50
2018-11-12T12:03:36.677Z,9.20
2018-11-12T12:06:04.973Z,6.80
2018-11-12T12:08:33.024Z,10.07
2018-11-12T12:11:02.163Z,7.53
2018-11-12T12:13:30.194Z,4.73
2018-11-12T12:15:58.251Z,7.43
2018-11-12T12:18:26.290Z,7.40
2018-11-12T12:20:54.340Z,4.87
2018-11-12T12:23:22.728Z,6.03
2018-11-12T12:25:50.867Z,11.20
2018-11-12T12:28:18.814Z,8.17
2018-11-12T12:30:46.886Z,9.97
2018-11-12T12:33:14.914Z,5.03
2018-11-12T12:35:42.988Z,7.63
2018-11-12T12:38:11.009Z,7.57
2018-11-12T12:40:39.062Z,6.27
2018-11-12T12:43:07.100Z,9.90
2018-11-12T12:45:35.272Z,9.83
2018-11-12T12:48:03.239Z,8.27
2018-11-12T12:50:31.490Z,8.90
2018-11-12T12:52:59.541Z,5.77
2018-11-12T12:55:27.672Z,11.80
2018-11-12T12:57:55.679Z,11.37
2018-11-12T13:00:27.571Z,14.00
2018-11-12T13:02:55.909Z,8.90
2018-11-12T13:05:23.961Z,14.73
2018-11-12T13:07:52.009Z,8.83
2018-11-12T13:10:21.142Z,8.47
2018-11-12T13:12:49.189Z,16.70
2018-11-12T13:15:18.475Z,9.87
2018-11-12T13:17:47.305Z,13.83
2018-11-12T13:20:16.590Z,13.97
2018-11-12T13:22:45.387Z,15.63
2018-11-12T13:25:13.577Z,16.50
2018-11-12T13:27:42.157Z,26.40
2018-11-12T13:30:13.282Z,18.97
2018-11-12T13:32:41.774Z,14.10
2018-11-12T13:35:11.383Z,11.43
2018-11-12T13:37:39.470Z,14.60
2018-11-12T13:40:11.815Z,21.17
2018-11-12T13:42:40.089Z,13.50
2018-11-12T13:45:08.577Z,13.80
2018-11-12T13:47:36.634Z,15.27
2018-11-12T13:50:07.214Z,15.33
2018-11-12T13:52:35.273Z,12.30
2018-11-12T13:55:03.660Z,15.63
2018-11-12T13:57:31.710Z,16.10
2018-11-12T14:00:00.678Z,12.47
2018-11-12T14:02:28.734Z,17.17
2018-11-12T14:04:56.797Z,13.33
2018-11-12T14:07:24.858Z,13.17
2018-11-12T14:09:52.918Z,18.53
2018-11-12T14:12:20.992Z,15.47
2018-11-12T14:14:49.043Z,18.67
2018-11-12T14:17:17.141Z,20.87
2018-11-12T14:19:45.189Z,14.20
2018-11-12T14:22:13.251Z,16.70
2018-11-12T14:24:41.293Z,15.50
2018-11-12T14:27:09.361Z,15.00
2018-11-12T14:29:37.407Z,20.90
2018-11-12T14:32:05.859Z,15.53
2018-11-12T14:34:33.902Z,16.90
2018-11-12T14:37:03.129Z,17.90
2018-11-12T14:39:31.224Z,20.33
2018-11-12T14:41:59.255Z,18.00
2018-11-12T14:44:27.351Z,17.50
2018-11-12T14:46:55.401Z,19.77
2018-11-12T14:49:23.450Z,19.40
2018-11-12T14:51:51.490Z,22.97
2018-11-12T14:54:19.575Z,23.87
2018-11-12T14:56:47.629Z,17.43
2018-11-12T14:59:15.728Z,22.03
2018-11-12T15:01:43.864Z,27.50
2018-11-12T15:04:11.833Z,26.87
2018-11-12T15:06:39.970Z,16.07
2018-11-12T15:09:09.570Z,20.20
2018-11-12T15:11:38.025Z,27.87
2018-11-12T15:14:06.168Z,21.33
2018-11-12T15:16:34.218Z,23.50
2018-11-12T15:19:02.286Z,19.77
2018-11-12T15:21:30.348Z,20.70
2018-11-12T15:23:58.385Z,20.80
2018-11-12T15:26:26.433Z,28.30
2018-11-12T15:28:54.502Z,19.00
2018-11-12T15:31:22.579Z,36.43
2018-11-12T15:33:50.763Z,18.33
2018-11-12T15:36:18.810Z,21.10
2018-11-12T15:38:46.859Z,25.83
2018-11-12T15:41:14.913Z,21.80
2018-11-12T15:43:42.961Z,19.73
2018-11-12T15:46:11.042Z,19.33
2018-11-12T15:48:39.579Z,25.13
2018-11-12T15:51:07.646Z,20.67
2018-11-12T15:53:35.710Z,16.53
2018-11-12T15:56:03.762Z,16.87
2018-11-12T15:58:31.813Z,22.30
2018-11-12T16:00:59.859Z,25.60
2018-11-12T16:03:27.906Z,19.50
2018-11-12T16:05:55.986Z,18.13
2018-11-12T16:08:24.565Z,26.90
2018-11-12T16:10:52.649Z,19.33
2018-11-12T16:13:20.694Z,17.57
2018-11-12T16:15:48.746Z,20.03
2018-11-12T16:18:16.785Z,19.87
2018-11-12T16:20:44.886Z,19.87
2018-11-12T16:23:12.930Z,18.60
2018-11-12T16:25:40.975Z,25.57
2018-11-12T16:28:09.013Z,24.90
2018-11-12T16:30:37.066Z,15.43
2018-11-12T16:33:05.611Z,14.30
2018-11-12T16:35:33.661Z,15.13
2018-11-12T16:38:01.718Z,17.57
2018-11-12T16:40:29.837Z,16.17
2018-11-12T16:42:57.843Z,15.50
2018-11-12T16:45:25.899Z,23.83
2018-11-12T16:47:53.953Z,20.10
2018-11-12T16:50:21.994Z,17.93
2018-11-12T16:52:50.065Z,19.00
2018-11-12T16:55:20.478Z,37.27
2018-11-12T16:57:48.750Z,24.77
2018-11-12T17:00:17.910Z,29.40
2018-11-12T17:02:46.437Z,25.50
2018-11-12T17:05:16.893Z,23.70
2018-11-12T17:07:44.949Z,29.37
2018-11-12T17:10:14.636Z,27.30
2018-11-12T17:12:43.525Z,29.93
2018-11-12T17:15:12.306Z,33.33
2018-11-12T17:17:40.519Z,32.47
2018-11-12T17:20:09.301Z,32.10
2018-11-12T17:22:37.762Z,34.13
2018-11-12T17:25:06.903Z,31.33
2018-11-12T17:27:35.093Z,27.77
2018-11-12T17:30:03.194Z,32.27
2018-11-12T17:32:31.246Z,30.70
2018-11-12T17:34:59.302Z,25.50
2018-11-12T17:37:27.370Z,25.27
2018-11-12T17:39:55.441Z,24.40
2018-11-12T17:42:23.507Z,22.30
2018-11-12T17:44:51.600Z,27.63
2018-11-12T17:47:19.669Z,24.67
2018-11-12T17:49:47.789Z,24.70
2018-11-12T17:52:16.066Z,23.47
2018-11-12T17:54:44.133Z,19.33
2018-11-12T17:57:12.178Z,21.63
2018-11-12T17:59:40.229Z,19.07
2018-11-12T18:02:08.298Z,18.70
2018-11-12T18:04:36.369Z,18.80
2018-11-12T18:07:04.563Z,22.67
2018-11-12T18:09:32.546Z,20.30
2018-11-12T18:12:00.589Z,24.83
2018-11-12T18:14:28.651Z,19.47
2018-11-12T18:16:56.808Z,24.60
2018-11-12T18:19:24.988Z,21.37
2018-11-12T18:21:53.009Z,29.00
2018-11-12T18:24:21.106Z,27.60
2018-11-12T18:26:49.173Z,28.33
2018-11-12T18:29:17.443Z,28.20
2018-11-12T18:31:45.658Z,32.80
2018-11-12T18:34:13.566Z,29.50
2018-11-12T18:36:41.610Z,29.07
2018-11-12T18:39:10.109Z,29.00
2018-11-12T18:41:38.960Z,29.37
2018-11-12T18:44:07.026Z,25.73
2018-11-12T18:46:35.095Z,23.20
2018-11-12T18:49:03.129Z,31.20
2018-11-12T18:51:31.191Z,24.37
2018-11-12T18:53:59.250Z,26.03
2018-11-12T18:56:27.294Z,24.83
2018-11-12T18:58:55.362Z,25.83
2018-11-12T19:01:23.411Z,24.40
2018-11-12T19:03:51.465Z,31.90
2018-11-12T19:06:19.505Z,28.20
2018-11-12T19:08:47.782Z,26.00
2018-11-12T19:11:15.837Z,29.93
2018-11-12T19:13:43.873Z,26.77
2018-11-12T19:16:11.931Z,28.90
2018-11-12T19:18:39.981Z,31.50
2018-11-12T19:21:08.076Z,27.63
2018-11-12T19:23:36.074Z,37.07
2018-11-12T19:26:04.129Z,31.50
2018-11-12T19:28:32.211Z,33.97
2018-11-12T19:31:00.269Z,40.07
2018-11-12T19:33:28.334Z,36.50
2018-11-12T19:35:57.021Z,48.40
2018-11-12T19:38:25.288Z,39.67
2018-11-12T19:40:53.363Z,40.07
2018-11-12T19:43:21.397Z,40.43
2018-11-12T19:45:49.497Z,32.57
2018-11-12T19:48:18.566Z,40.20
2018-11-12T19:50:46.619Z,37.63
2018-11-12T19:53:14.691Z,37.37
2018-11-12T19:55:42.763Z,39.13
2018-11-12T19:58:10.793Z,38.70
2018-11-12T20:00:38.858Z,35.80
2018-11-12T20:03:06.905Z,39.10
2018-11-12T20:05:34.954Z,39.60
2018-11-12T20:08:03.058Z,41.20
2018-11-12T20:10:31.455Z,44.30
2018-11-12T20:12:59.494Z,44.77
2018-11-12T20:15:28.559Z,40.67
2018-11-12T20:17:57.256Z,37.47
2018-11-12T20:20:26.726Z,39.20
2018-11-12T20:22:54.918Z,38.10
2018-11-12T20:25:23.004Z,36.50
2018-11-12T20:27:52.105Z,41.07
2018-11-12T20:30:24.837Z,36.63
2018-11-12T20:32:53.077Z,46.17
2018-11-12T20:35:21.472Z,40.83
2018-11-12T20:37:49.518Z,40.70
2018-11-12T20:40:17.861Z,41.20
2018-11-12T20:42:47.094Z,38.57
2018-11-12T20:45:16.178Z,36.03
2018-11-12T20:47:45.366Z,40.27
2018-11-12T20:50:14.145Z,42.77
2018-11-12T20:52:42.631Z,41.57
2018-11-12T20:55:11.918Z,46.57
2018-11-12T20:57:40.500Z,41.93
2018-11-12T21:00:12.978Z,39.47
2018-11-12T21:02:42.544Z,41.97
2018-11-12T21:05:11.693Z,38.00
2018-11-12T21:07:40.003Z,40.97
2018-11-12T21:10:09.454Z,36.73
2018-11-12T21:12:37.591Z,37.90
2018-11-12T21:15:07.020Z,36.10
2018-11-12T21:17:35.212Z,45.30
2018-11-12T21:20:03.500Z,40.80
2018-11-12T21:22:31.542Z,38.67
2018-11-12T21:25:00.337Z,33.63
2018-11-12T21:27:28.419Z,41.53
2018-11-12T21:29:56.642Z,40.67
2018-11-12T21:32:24.713Z,42.53
2018-11-12T21:34:52.827Z,39.13
2018-11-12T21:37:21.074Z,47.20
2018-11-12T21:39:49.302Z,38.13
2018-11-12T21:42:18.444Z,39.70
2018-11-12T21:44:46.530Z,36.23
2018-11-12T21:47:14.600Z,36.33
2018-11-12T21:49:42.671Z,33.63
2018-11-12T21:52:11.603Z,42.53
2018-11-12T21:54:39.653Z,39.80
2018-11-12T21:57:07.706Z,33.63
2018-11-12T21:59:35.870Z,36.37
2018-11-12T22:02:03.976Z,33.27
2018-11-12T22:04:32.165Z,31.00
2018-11-12T22:07:00.209Z,27.80
2018-11-12T22:09:28.259Z,25.80
2018-11-12T22:11:56.898Z,30.43
2018-11-12T22:14:24.970Z,31.00
2018-11-12T22:16:53.014Z,31.73
2018-11-12T22:19:21.205Z,33.73
2018-11-12T22:21:49.126Z,31.97
2018-11-12T22:24:18.275Z,31.80
2018-11-12T22:26:46.350Z,31.03
2018-11-12T22:29:14.415Z,31.97
2018-11-12T22:31:42.494Z,30.63
2018-11-12T22:34:10.554Z,29.27
2018-11-12T22:36:38.618Z,31.00
2018-11-12T22:39:07.979Z,32.73
2018-11-12T22:41:36.066Z,31.67
2018-11-12T22:44:04.194Z,30.70
2018-11-12T22:46:32.194Z,30.67
2018-11-12T22:49:00.243Z,29.43
2018-11-12T22:51:28.305Z,35.67
2018-11-12T22:53:56.372Z,32.10
2018-11-12T22:56:24.417Z,28.23
2018-11-12T22:58:52.452Z,32.73
2018-11-12T23:01:20.498Z,31.10
2018-11-12T23:03:48.539Z,34.03
2018-11-12T23:06:16.586Z,35.37
2018-11-12T23:08:44.634Z,33.20
2018-11-12T23:11:12.683Z,31.63
2018-11-12T23:13:40.714Z,32.83
2018-11-12T23:16:09.204Z,29.27
2018-11-12T23:18:37.295Z,30.23
2018-11-12T23:21:05.487Z,26.57
2018-11-12T23:23:33.549Z,34.03
2018-11-12T23:26:01.614Z,34.73
2018-11-12T23:28:30.197Z,29.90
2018-11-12T23:30:58.339Z,28.60
2018-11-12T23:33:26.393Z,36.13
2018-11-12T23:35:54.450Z,27.67
2018-11-12T23:38:22.505Z,32.90
2018-11-12T23:40:50.565Z,31.00
2018-11-12T23:43:18.622Z,30.80
2018-11-12T23:45:47.130Z,30.43
2018-11-12T23:48:15.190Z,44.23
2018-11-12T23:50:43.245Z,33.40
2018-11-12T23:53:11.846Z,31.43
2018-11-12T23:55:39.893Z,39.90
2018-11-12T23:58:07.945Z,28.90
